Bison, South Dakota
Current Conditions -  °F | °C
As of 10:53 AM on Saturday 25 Oct 2014 (Local Time) from KHEI Reporting Station
Clear Clear  
Wind Chill: 59°   Ceiling: Unl
Heat Index: 59°   Visibility: 10mi
Dew Point: 28°   Wind: 7mph
Humidity: 31%   Direction: 150°SSE
Pressure: 30.14"   Gusts: NA
Location:  45.52°N, 102.46°W
Report Text: KHEI 251653Z AUTO 15006KT 10SM CLR 15/M02 A3014 RMK AO2 SLP209 T01501022
Loading
Personal Weather Stations






























Interactive Weather Map
Tropical Storm Tracking
New forecast layout! Learn more

10-Day Weather Forecast

Advertisements
Track Severe Weather on mobile